Record high temperature 36.2°C Record low temperature -23.6°C Record high gust 74.0 km/h Record high average 55.5 km/h Record daily rain 63.5 mm Record low windchill -31.7°C Record high barometer 1043.2 hPa Record low barometer 979.5 hPa
Daily high pressure 1022.1 hPa Daily low pressure 1019.3 hPa Daily low windchill 12.9°C Daily high heat index 28.9°C Daily high gust speed 14.8 kmh SE Daily high average speed 9.3 kmh SE
Forecast: increasing clouds with little temp change, precipitation possible within 24 to 48 hrs.
Données Météo
Dernière mise à jour à : 18:10 le :August 07 2020, time of next update: 18:11
Météo actuelleNight time/Dry Température actuelle28.1°C (82.6°F) (Température 28.3°C ), Apparent temp 30.1°C
Temperature Maximum (depuis minuit)28.3°C at: 17:46 Temperature Minimum (depuis minuit)12.9°C at: 05:51
Vitesse moyenne du vent (dix minutes)0.7 kmh (0.4 kts) Direction du vent (dix minutes)SE (141°)
Température 28.3°C Rafale maximum (dernière heure)14.5 kmh (7.8 kts) at: 17:22
Rafale maximum (depuis minuit)14.8 kmh (8.0 kts) at: 17:22 Maximum des moyennes à 1mn (depuis minuit)9.3 kmh (5.0 kts) at: 16:22
Précipitation (dernière heure)0.0 mm Précipitation (depuis minuit)0.0 mm (0.00 in.)---
Précipitation Ce mois ci 316.5 mm (12.46 in.) Précipitation To date this year 575.8 mm (22.67 in.)
Précipitation maximum par minute (dernière heure)0.0 mm/min Précipitation maximum par heure (dernières 6 heures)0.0 mm/Heure
Précipitations de hier0.0 mm Point de rosée 15.7°C (Wet Bulb :20.4°C )
Humidité 47 %, Humidex 32.6°C Barometre corrected to msl1019.3 hPa
Evolution de la pression -0.4 hPa (dernière heure) Tendance (dernières 1 heure)CONSTANT
Evolution de la pression dernières 12 heures)-0.7 hPa Evolution de la pression (dernières 6 heures)-2.6 hPa

This page is updated from recent data collected by a DAVIS VANTAGE PRO weather station Use the Reload or Refresh facility on your browser to retrieve the latest data.



Weather report/warning/Metars

Kingston, Ont., Canada (CYGK) 44-13N 076-36W 93M
Aug 07, 2020 - 05:00 PM EDT / 2020.08.07 2100 UTC
Wind: from the S (190 degrees) at 6 MPH (5 KT):0
Visibility: 15 mile(s):0
Sky conditions: partly cloudy
Temperature: 77 F (25 C)
Dew Point: 55 F (13 C)
Relative Humidity: 47%
Pressure (altimeter): 30.13 in. Hg (1020 hPa)
ob: CYGK 072100Z 19005KT 15SM FEW035 FEW150 SCT250 25/13 A3013 RMK CU1AC1CI2 SLP205 DENSITY ALT 1300FT
cycle: 21
Montreal / Pierre Elliot Trudeau International Airport, Que, Canada (CYUL) 45-28N 073-45W 36M
Aug 07, 2020 - 05:00 PM EDT / 2020.08.07 2100 UTC
Wind: from the SSE (150 degrees) at 6 MPH (5 KT) (direction variable):0
Visibility: 30 mile(s):0
Sky conditions: mostly clear
Temperature: 80 F (27 C)
Dew Point: 57 F (14 C)
Relative Humidity: 44%
Pressure (altimeter): 30.12 in. Hg (1019 hPa)
ob: CYUL 072100Z 15005KT 120V220 30SM FEW060 FEW250 27/14 A3012 RMK SC1CI1 SC TR CI TR SLP201 DENSITY ALT 1300FT
cycle: 21